Grazzanise Airport LIRM

Flugplatz Daten

Name: Grazzanise Airport

Ident: LIRM

Lat: 41,06079865

Long: 14,08189964

Platzhöhe: 29 ft

IataCode:

City: Caserta

Metar

2021/08/05 12:55
LIRM 051255Z /////KT 9999 SCT025 SCT060 27/18 Q1011 RMK BKN VIS MIN 9999 WIND THR06 25016KT BLU

Taf

2021/01/18 12:24
TAF TAF LIRM 181100Z 1812/1824 04008KT CAVOK
Gewünschte Webcam nicht vorhanden? Dann fügen Sie eine hinzu. Sie wird dann so schnell wie möglich freigeschaltet
Url: Title: